Time;durP1;ratioP1;P1;durP2;ratioP2;P2;SDS_P1;SDS_P2;PMS_P1;PMS_P2;Temp;Humidity;BMP_temperature;BMP_pressure;BME280_temperature;BME280_humidity;BME280_pressure;Samples;Min_cycle;Max_cycle;Signal;HPM_P1;HPM_P2
2022/02/03 00:00:45;;;;;;;1.88;1.58;;;;;;;;;;5043210;28;20021;-55
2022/02/03 00:03:18;;;;;;;2.03;1.60;;;;;;;;;;5041855;28;20331;-55
2022/02/03 00:17:00;;;;;;;1.80;1.48;;;;;;;;;;5043437;28;20530;-54
2022/02/03 00:24:52;;;;;;;2.35;1.77;;;;;;;;;;5046452;28;20032;-55
2022/02/03 00:27:35;;;;;;;1.85;1.63;;;;;;;;;;5027227;28;20025;-54
2022/02/03 00:30:06;;;;;;;2.42;1.73;;;;;;;;;;5032804;28;20420;-54
2022/02/03 00:48:56;;;;;;;2.60;1.88;;;;;;;;;;5046281;28;20091;-54
2022/02/03 00:51:23;;;;;;;1.77;1.60;;;;;;;;;;5043397;28;20052;-55
2022/02/03 00:53:49;;;;;;;1.70;1.55;;;;;;;;;;5035257;28;20506;-52
2022/02/03 00:56:16;;;;;;;2.63;1.90;;;;;;;;;;5026411;28;20026;-53
2022/02/03 00:58:50;;;;;;;2.13;1.73;;;;;;;;;;5026921;28;20038;-52
2022/02/03 01:01:18;;;;;;;1.88;1.60;;;;;;;;;;5041549;28;20082;-53
2022/02/03 01:03:47;;;;;;;2.17;1.63;;;;;;;;;;5067827;28;20029;-52
2022/02/03 01:06:14;;;;;;;2.45;1.90;;;;;;;;;;5062445;28;20458;-51
2022/02/03 01:08:45;;;;;;;2.20;1.88;;;;;;;;;;5047909;28;20456;-53
2022/02/03 01:11:20;;;;;;;2.03;1.58;;;;;;;;;;5048145;28;20056;-50
2022/02/03 01:43:12;;;;;;;2.70;1.70;;;;;;;;;;5030595;28;20092;-51
2022/02/03 01:43:42;;;;;;;2.47;1.98;;;;;;;;;;5027608;28;20044;-53
2022/02/03 01:46:15;;;;;;;2.55;2.13;;;;;;;;;;5040043;28;20064;-52
2022/02/03 01:49:04;;;;;;;2.75;2.15;;;;;;;;;;5027148;28;20373;-53
2022/02/03 01:51:42;;;;;;;2.92;2.00;;;;;;;;;;5027601;28;20025;-53
2022/02/03 01:54:08;;;;;;;2.40;1.77;;;;;;;;;;5026971;28;20079;-51
2022/02/03 01:56:41;;;;;;;2.10;1.80;;;;;;;;;;5029752;28;20029;-53
2022/02/03 01:59:20;;;;;;;2.72;1.83;;;;;;;;;;5047173;28;20029;-53
2022/02/03 02:01:49;;;;;;;2.33;1.80;;;;;;;;;;5046438;28;20017;-53
2022/02/03 02:04:24;;;;;;;1.92;1.65;;;;;;;;;;5045309;28;20033;-53
2022/02/03 02:07:09;;;;;;;2.55;1.60;;;;;;;;;;5034764;28;20036;-53
2022/02/03 02:11:03;;;;;;;2.78;1.58;;;;;;;;;;5046944;28;20045;-53
2022/02/03 02:13:01;;;;;;;1.58;1.48;;;;;;;;;;5049655;28;20036;-53
2022/02/03 02:18:46;;;;;;;;;;;;;;;;;;5025975;28;20032;-53
2022/02/03 02:38:14;;;;;;;1.20;1.10;;;;;;;;;;5026288;28;20121;-51
2022/02/03 02:41:57;;;;;;;1.33;1.23;;;;;;;;;;5026045;28;20619;-53
2022/02/03 02:43:39;;;;;;;1.60;1.10;;;;;;;;;;5026176;28;20524;-52
2022/02/03 02:46:21;;;;;;;1.67;1.35;;;;;;;;;;5025679;28;20025;-53
2022/02/03 02:48:47;;;;;;;1.13;1.02;;;;;;;;;;5045978;28;20064;-52
2022/02/03 02:51:19;;;;;;;1.73;1.20;;;;;;;;;;5046239;28;20056;-52
2022/02/03 03:37:54;;;;;;;3.90;2.70;;;;;;;;;;5035325;28;20060;-54
2022/02/03 03:40:14;;;;;;;3.50;1.98;;;;;;;;;;5025670;28;20034;-52
2022/02/03 03:42:45;;;;;;;5.25;3.00;;;;;;;;;;5025612;28;20030;-54
2022/02/03 03:45:12;;;;;;;3.00;1.90;;;;;;;;;;5031278;28;20060;-52
2022/02/03 03:47:39;;;;;;;2.60;1.70;;;;;;;;;;5035500;28;20025;-52
2022/02/03 03:50:10;;;;;;;3.28;1.95;;;;;;;;;;5026016;28;20033;-53
2022/02/03 03:52:43;;;;;;;3.05;1.65;;;;;;;;;;5025962;28;20044;-50
2022/02/03 03:55:31;;;;;;;2.30;1.92;;;;;;;;;;5029852;28;20420;-52
2022/02/03 04:39:49;;;;;;;3.38;2.58;;;;;;;;;;5048386;28;20044;-53
2022/02/03 05:02:17;;;;;;;4.03;2.88;;;;;;;;;;5065387;28;20040;-53
2022/02/03 05:05:39;;;;;;;;;;;;;;;;;;5046562;28;20029;-51
2022/02/03 05:13:31;;;;;;;5.05;3.20;;;;;;;;;;5048884;28;20159;-51
2022/02/03 06:13:14;;;;;;;3.75;2.83;;;;;;;;;;5046898;28;20079;-52
2022/02/03 06:23:43;;;;;;;4.18;2.75;;;;;;;;;;5027867;28;20026;-48
2022/02/03 06:29:18;;;;;;;5.32;3.70;;;;;;;;;;5031049;28;20401;-52
2022/02/03 06:31:46;;;;;;;4.13;2.88;;;;;;;;;;5031939;28;20041;-53
2022/02/03 06:34:13;;;;;;;5.85;3.40;;;;;;;;;;5033173;28;20029;-52
2022/02/03 06:36:40;;;;;;;5.25;3.40;;;;;;;;;;5029164;28;20044;-50
2022/02/03 06:39:20;;;;;;;5.53;3.70;;;;;;;;;;5037654;28;20037;-52
2022/02/03 06:41:50;;;;;;;4.93;3.25;;;;;;;;;;5032319;28;20029;-52
2022/02/03 06:44:17;;;;;;;5.43;3.20;;;;;;;;;;5033354;28;20014;-52
2022/02/03 06:46:48;;;;;;;4.18;2.97;;;;;;;;;;5027142;28;20075;-51
2022/02/03 06:51:57;;;;;;;5.20;3.45;;;;;;;;;;5027410;28;20103;-52
2022/02/03 06:54:34;;;;;;;;;;;;;;;;;;5027485;28;20029;-52
2022/02/03 06:57:04;;;;;;;4.97;3.38;;;;;;;;;;5046815;28;19991;-52
2022/02/03 06:59:45;;;;;;;4.57;3.15;;;;;;;;;;5041011;28;20481;-52
2022/02/03 07:02:11;;;;;;;5.22;3.80;;;;;;;;;;5027241;28;20030;-52
2022/02/03 07:04:43;;;;;;;5.70;4.00;;;;;;;;;;5026766;28;20030;-52
2022/02/03 07:07:09;;;;;;;5.47;3.67;;;;;;;;;;5026641;28;20034;-52
2022/02/03 07:09:35;;;;;;;5.47;3.67;;;;;;;;;;5035563;28;20504;-52
2022/02/03 07:12:03;;;;;;;5.00;3.50;;;;;;;;;;5028743;28;20025;-52
2022/02/03 07:14:32;;;;;;;5.75;3.92;;;;;;;;;;5027217;28;20029;-52
2022/02/03 07:17:01;;;;;;;4.85;3.20;;;;;;;;;;5027857;28;20065;-52
2022/02/03 07:19:27;;;;;;;4.72;3.20;;;;;;;;;;5039069;28;20029;-52
2022/02/03 07:21:53;;;;;;;5.15;3.58;;;;;;;;;;5041599;28;20404;-50
2022/02/03 07:24:20;;;;;;;3.55;2.55;;;;;;;;;;5039577;28;20056;-51
2022/02/03 07:26:46;;;;;;;3.67;2.60;;;;;;;;;;5030892;28;20029;-50
2022/02/03 07:29:12;;;;;;;3.60;2.60;;;;;;;;;;5031364;28;20038;-52
2022/02/03 07:31:38;;;;;;;3.85;2.75;;;;;;;;;;5030865;28;20064;-49
2022/02/03 07:34:13;;;;;;;3.90;2.85;;;;;;;;;;5031067;28;20034;-52
2022/02/03 07:36:39;;;;;;;3.75;2.45;;;;;;;;;;5027374;28;20025;-51
2022/02/03 07:39:07;;;;;;;3.45;2.50;;;;;;;;;;5030719;28;20033;-53
2022/02/03 07:41:33;;;;;;;4.65;3.00;;;;;;;;;;5030170;28;20026;-52
2022/02/03 07:43:59;;;;;;;3.13;2.45;;;;;;;;;;5031225;28;20463;-53
2022/02/03 07:46:25;;;;;;;4.93;3.28;;;;;;;;;;5030509;28;20437;-52
2022/02/03 07:48:54;;;;;;;4.40;3.08;;;;;;;;;;5030710;28;20029;-51
2022/02/03 07:51:20;;;;;;;4.68;3.22;;;;;;;;;;5033435;28;20116;-52
2022/02/03 07:53:46;;;;;;;5.18;2.95;;;;;;;;;;5050212;28;20033;-51
2022/02/03 07:56:12;;;;;;;4.53;3.08;;;;;;;;;;5044595;28;20530;-50
2022/02/03 07:58:38;;;;;;;4.95;3.63;;;;;;;;;;5035306;28;20033;-52
2022/02/03 08:01:05;;;;;;;4.90;3.47;;;;;;;;;;5043161;28;20504;-49
2022/02/03 08:03:31;;;;;;;5.57;3.72;;;;;;;;;;5030658;28;20030;-52
2022/02/03 08:06:02;;;;;;;5.80;3.75;;;;;;;;;;5039522;28;20694;-53
2022/02/03 08:08:34;;;;;;;5.38;3.53;;;;;;;;;;5050369;28;20032;-52
2022/02/03 08:11:05;;;;;;;4.75;3.40;;;;;;;;;;5045086;28;20020;-50
2022/02/03 08:13:33;;;;;;;4.95;3.05;;;;;;;;;;5031176;28;20029;-51
2022/02/03 08:16:05;;;;;;;3.88;2.88;;;;;;;;;;5047424;28;20674;-51
2022/02/03 08:18:33;;;;;;;5.60;3.25;;;;;;;;;;5034431;28;20049;-49
2022/02/03 08:21:04;;;;;;;4.32;2.97;;;;;;;;;;5032233;28;20029;-52
2022/02/03 08:26:09;;;;;;;5.93;3.47;;;;;;;;;;5030641;28;20095;-52
2022/02/03 08:31:21;;;;;;;6.90;4.43;;;;;;;;;;5029629;28;20025;-50
2022/02/03 08:33:50;;;;;;;5.53;3.78;;;;;;;;;;5028993;28;20075;-51
2022/02/03 08:36:16;;;;;;;6.50;3.92;;;;;;;;;;5032219;28;20029;-53
2022/02/03 08:41:08;;;;;;;6.65;4.20;;;;;;;;;;5037244;28;20112;-52
2022/02/03 08:43:35;;;;;;;6.20;3.90;;;;;;;;;;5049246;28;20634;-52
2022/02/03 08:46:03;;;;;;;5.53;3.90;;;;;;;;;;5050198;28;20104;-52
2022/02/03 08:48:30;;;;;;;4.55;3.30;;;;;;;;;;5049963;28;20630;-50
2022/02/03 08:50:56;;;;;;;4.97;3.42;;;;;;;;;;5046931;28;20488;-52
2022/02/03 09:55:01;;;;;;;8.50;5.45;;;;;;;;;;5046395;28;20051;-52
2022/02/03 09:57:50;;;;;;;6.50;4.65;;;;;;;;;;5047229;28;20021;-52
2022/02/03 10:00:25;;;;;;;7.93;5.20;;;;;;;;;;5029516;28;20448;-52
2022/02/03 10:02:59;;;;;;;10.55;6.35;;;;;;;;;;5032921;28;20021;-52
2022/02/03 10:05:39;;;;;;;9.35;5.88;;;;;;;;;;5030845;28;20021;-52
2022/02/03 10:08:11;;;;;;;8.40;5.40;;;;;;;;;;5049504;28;20494;-50
2022/02/03 10:10:37;;;;;;;9.77;5.90;;;;;;;;;;5044625;28;20107;-51
2022/02/03 10:13:15;;;;;;;8.25;5.32;;;;;;;;;;5047838;28;20036;-49
2022/02/03 10:15:41;;;;;;;8.55;5.70;;;;;;;;;;5044137;28;20032;-50
2022/02/03 10:18:20;;;;;;;7.43;5.13;;;;;;;;;;5030265;28;20358;-51
2022/02/03 10:20:49;;;;;;;8.38;5.55;;;;;;;;;;5049319;28;20090;-50
2022/02/03 10:23:21;;;;;;;8.15;5.28;;;;;;;;;;5047801;28;20659;-51
2022/02/03 10:25:51;;;;;;;5.90;4.65;;;;;;;;;;5047673;28;20392;-51
2022/02/03 10:28:17;;;;;;;7.18;4.90;;;;;;;;;;5049378;28;20029;-53
2022/02/03 10:30:54;;;;;;;7.38;4.70;;;;;;;;;;5048760;28;20029;-51
2022/02/03 10:33:30;;;;;;;5.57;4.00;;;;;;;;;;5036035;28;20036;-51
2022/02/03 10:36:01;;;;;;;5.88;4.00;;;;;;;;;;5047423;28;20025;-52
2022/02/03 10:49:06;;;;;;;5.93;3.95;;;;;;;;;;5048516;28;20542;-52
2022/02/03 10:57:29;;;;;;;4.97;3.67;;;;;;;;;;5028229;28;20403;-52
2022/02/03 11:07:29;;;;;;;4.38;3.20;;;;;;;;;;5028085;28;20165;-52
2022/02/03 11:09:59;;;;;;;4.50;2.97;;;;;;;;;;5040083;28;20079;-52
2022/02/03 11:12:28;;;;;;;4.32;3.10;;;;;;;;;;5031554;28;20043;-53
2022/02/03 11:14:55;;;;;;;4.38;2.80;;;;;;;;;;5031433;28;21317;-53
2022/02/03 11:17:21;;;;;;;4.72;2.92;;;;;;;;;;5033584;28;20403;-53
2022/02/03 11:19:51;;;;;;;3.78;2.70;;;;;;;;;;5046322;28;20391;-53
2022/02/03 11:22:26;;;;;;;4.80;3.22;;;;;;;;;;5040637;28;20069;-53
2022/02/03 11:25:07;;;;;;;4.35;2.95;;;;;;;;;;5039254;28;20520;-54
2022/02/03 11:38:39;;;;;;;3.80;2.50;;;;;;;;;;5027239;28;20674;-53
2022/02/03 12:04:06;;;;;;;3.20;2.38;;;;;;;;;;5026248;28;20044;-53
2022/02/03 12:20:39;;;;;;;4.55;3.15;;;;;;;;;;5041266;28;20040;-51
2022/02/03 12:23:27;;;;;;;3.95;2.78;;;;;;;;;;5038687;28;20029;-52
2022/02/03 12:26:01;;;;;;;5.15;3.65;;;;;;;;;;5038586;28;20033;-52
2022/02/03 12:28:35;;;;;;;4.88;3.53;;;;;;;;;;5048495;28;20028;-53
2022/02/03 12:39:36;;;;;;;5.03;3.85;;;;;;;;;;5043584;28;20040;-55
2022/02/03 12:42:06;;;;;;;4.45;3.47;;;;;;;;;;5034001;28;20385;-51
2022/02/03 12:44:36;;;;;;;5.25;3.63;;;;;;;;;;5029496;28;20017;-52
2022/02/03 12:47:05;;;;;;;4.60;3.47;;;;;;;;;;5029694;28;20024;-54
2022/02/03 12:49:32;;;;;;;5.22;3.88;;;;;;;;;;5044244;28;20032;-52
2022/02/03 12:51:58;;;;;;;4.32;3.63;;;;;;;;;;5049558;28;20063;-50
2022/02/03 12:54:24;;;;;;;5.40;4.03;;;;;;;;;;5048650;28;20033;-52
2022/02/03 12:56:59;;;;;;;6.63;4.03;;;;;;;;;;5048703;28;20033;-52
2022/02/03 12:59:27;;;;;;;4.20;3.22;;;;;;;;;;5045843;28;20040;-53
2022/02/03 13:01:53;;;;;;;4.15;2.97;;;;;;;;;;5046347;28;20033;-52
2022/02/03 13:04:22;;;;;;;4.43;3.15;;;;;;;;;;5040808;28;20564;-53
2022/02/03 13:07:09;;;;;;;4.35;3.10;;;;;;;;;;5032408;28;20064;-52
2022/02/03 13:09:51;;;;;;;3.85;2.78;;;;;;;;;;5032896;28;20185;-53
2022/02/03 13:12:22;;;;;;;3.40;2.60;;;;;;;;;;5039008;28;20682;-52
2022/02/03 13:14:55;;;;;;;3.55;2.80;;;;;;;;;;5036914;28;20037;-52
2022/02/03 13:17:26;;;;;;;3.45;2.20;;;;;;;;;;5029619;28;20116;-53
2022/02/03 13:31:00;;;;;;;4.32;2.92;;;;;;;;;;5034218;28;20037;-53
2022/02/03 13:33:41;;;;;;;4.13;2.88;;;;;;;;;;5027230;28;20074;-55
2022/02/03 13:36:09;;;;;;;2.53;2.20;;;;;;;;;;5040786;28;20049;-53
2022/02/03 13:41:16;;;;;;;3.38;2.53;;;;;;;;;;5032411;28;20615;-54
2022/02/03 13:43:43;;;;;;;3.85;2.30;;;;;;;;;;5034662;28;20025;-52
2022/02/03 13:46:10;;;;;;;2.88;2.50;;;;;;;;;;5034899;28;20480;-52
2022/02/03 13:48:38;;;;;;;2.63;2.20;;;;;;;;;;5043971;28;20033;-53
2022/02/03 13:51:05;;;;;;;3.60;2.60;;;;;;;;;;5038704;28;20068;-53
2022/02/03 14:20:45;;;;;;;3.17;2.83;;;;;;;;;;5039274;28;20622;-53
2022/02/03 14:28:22;;;;;;;3.13;2.65;;;;;;;;;;5050141;28;20114;-52
2022/02/03 14:30:53;;;;;;;3.25;2.33;;;;;;;;;;5047229;28;20036;-52
2022/02/03 14:33:25;;;;;;;3.20;2.38;;;;;;;;;;5046350;28;20028;-54
2022/02/03 14:35:51;;;;;;;2.75;2.35;;;;;;;;;;5041690;28;20037;-53
2022/02/03 14:38:29;;;;;;;3.10;2.38;;;;;;;;;;5033398;28;20029;-54
2022/02/03 14:41:05;;;;;;;2.97;2.20;;;;;;;;;;5041945;28;20028;-53
2022/02/03 14:43:31;;;;;;;2.85;2.20;;;;;;;;;;5040034;28;20021;-54
2022/02/03 14:46:00;;;;;;;2.53;2.10;;;;;;;;;;5041675;28;20029;-54
2022/02/03 14:48:26;;;;;;;2.70;2.25;;;;;;;;;;5030365;28;20056;-53
2022/02/03 14:50:55;;;;;;;3.13;2.45;;;;;;;;;;5030553;28;20102;-53
2022/02/03 14:53:31;;;;;;;2.92;2.28;;;;;;;;;;5045495;28;20021;-53
2022/02/03 14:58:42;;;;;;;2.92;2.20;;;;;;;;;;5039792;28;20051;-53
2022/02/03 15:01:13;;;;;;;2.38;2.13;;;;;;;;;;5040689;28;20163;-53
2022/02/03 15:03:39;;;;;;;2.50;2.03;;;;;;;;;;5032688;28;20084;-54
2022/02/03 15:06:11;;;;;;;3.03;1.90;;;;;;;;;;5040243;28;20033;-52
2022/02/03 15:15:59;;;;;;;3.13;2.10;;;;;;;;;;5047279;28;20048;-50
2022/02/03 15:18:26;;;;;;;2.50;2.00;;;;;;;;;;5046651;28;20482;-53
2022/02/03 15:20:52;;;;;;;2.63;1.92;;;;;;;;;;5045232;28;20034;-52
2022/02/03 15:23:18;;;;;;;2.70;2.10;;;;;;;;;;5035959;28;20029;-52
2022/02/03 15:25:44;;;;;;;1.98;1.70;;;;;;;;;;5039862;28;20514;-53
2022/02/03 15:28:10;;;;;;;2.75;2.22;;;;;;;;;;5042868;28;20092;-53
2022/02/03 15:30:36;;;;;;;3.42;2.13;;;;;;;;;;5026531;28;20505;-52
2022/02/03 15:33:04;;;;;;;2.67;1.90;;;;;;;;;;5033767;28;20032;-53
2022/02/03 15:35:37;;;;;;;3.55;2.17;;;;;;;;;;5030045;28;20033;-53
2022/02/03 15:38:06;;;;;;;4.03;2.53;;;;;;;;;;5026709;28;20179;-53
2022/02/03 15:40:34;;;;;;;3.83;2.53;;;;;;;;;;5026488;28;20400;-53
2022/02/03 15:45:32;;;;;;;4.45;2.60;;;;;;;;;;5045032;28;20037;-54
2022/02/03 15:48:02;;;;;;;5.47;2.88;;;;;;;;;;5045859;28;20049;-53
2022/02/03 15:56:19;;;;;;;6.43;3.70;;;;;;;;;;5030154;28;20103;-53
2022/02/03 16:17:14;;;;;;;6.40;3.72;;;;;;;;;;5029982;28;20647;-53
2022/02/03 16:25:02;;;;;;;6.32;3.35;;;;;;;;;;5040045;28;20025;-52
2022/02/03 16:41:34;;;;;;;5.47;3.75;;;;;;;;;;5049772;28;20090;-53
2022/02/03 16:54:51;;;;;;;3.92;2.97;;;;;;;;;;5029881;28;20087;-53
2022/02/03 16:57:21;;;;;;;4.10;2.78;;;;;;;;;;5045221;28;20040;-52
2022/02/03 16:59:57;;;;;;;3.40;2.40;;;;;;;;;;5048847;28;20427;-53
2022/02/03 17:02:24;;;;;;;2.85;1.98;;;;;;;;;;5035242;28;20041;-52
2022/02/03 17:04:53;;;;;;;2.45;1.67;;;;;;;;;;5029571;28;20496;-52
2022/02/03 17:07:19;;;;;;;2.38;1.83;;;;;;;;;;5029501;28;20057;-52
2022/02/03 17:09:46;;;;;;;2.20;1.67;;;;;;;;;;5028947;28;20036;-52
2022/02/03 17:12:12;;;;;;;2.45;1.77;;;;;;;;;;5030118;28;20090;-54
2022/02/03 17:14:38;;;;;;;2.60;1.73;;;;;;;;;;5029444;28;20074;-52
2022/02/03 17:17:04;;;;;;;1.77;1.52;;;;;;;;;;5049193;28;20029;-53
2022/02/03 17:19:30;;;;;;;2.08;1.40;;;;;;;;;;5047602;28;20421;-52
2022/02/03 17:21:57;;;;;;;2.35;1.40;;;;;;;;;;5048761;28;20094;-54
2022/02/03 17:24:23;;;;;;;1.63;1.30;;;;;;;;;;5048025;28;20032;-50
2022/02/03 17:29:24;;;;;;;1.85;1.50;;;;;;;;;;5045089;28;20033;-51
2022/02/03 17:32:09;;;;;;;1.48;1.20;;;;;;;;;;5038272;28;20097;-52
2022/02/03 18:07:40;;;;;;;2.13;1.40;;;;;;;;;;5045428;28;20082;-52
2022/02/03 18:10:12;;;;;;;1.25;1.13;;;;;;;;;;5047126;28;20120;-52
2022/02/03 18:29:40;;;;;;;1.80;1.13;;;;;;;;;;5031001;28;20044;-52
2022/02/03 18:53:30;;;;;;;2.15;1.40;;;;;;;;;;5034717;28;20128;-51
2022/02/03 19:14:45;;;;;;;3.53;1.92;;;;;;;;;;5036175;28;20443;-49
2022/02/03 20:06:41;;;;;;;2.63;1.80;;;;;;;;;;5043481;28;20008;-51
2022/02/03 20:11:42;;;;;;;2.08;1.40;;;;;;;;;;5029411;28;20048;-54
2022/02/03 20:14:13;;;;;;;1.92;1.27;;;;;;;;;;5035940;28;20460;-52
2022/02/03 20:16:43;;;;;;;3.20;1.63;;;;;;;;;;5038798;28;20031;-49
2022/02/03 20:19:09;;;;;;;1.98;1.27;;;;;;;;;;5037076;28;20033;-52
2022/02/03 20:21:37;;;;;;;2.40;1.45;;;;;;;;;;5033591;28;20021;-49
2022/02/03 20:24:05;;;;;;;2.75;1.45;;;;;;;;;;5033988;28;20503;-51
2022/02/03 20:26:31;;;;;;;1.88;1.20;;;;;;;;;;5040539;28;20021;-51
2022/02/03 20:28:57;;;;;;;1.92;1.42;;;;;;;;;;5040964;28;20025;-51
2022/02/03 20:31:24;;;;;;;1.95;1.60;;;;;;;;;;5048287;28;20106;-50
2022/02/03 20:33:50;;;;;;;2.50;1.30;;;;;;;;;;5039972;28;20487;-52
2022/02/03 20:36:16;;;;;;;1.85;1.60;;;;;;;;;;5031398;28;20021;-53
2022/02/03 20:38:42;;;;;;;2.17;1.40;;;;;;;;;;5035443;28;20463;-52
2022/02/03 20:41:08;;;;;;;1.65;1.27;;;;;;;;;;5042825;28;20037;-50
2022/02/03 20:43:34;;;;;;;2.08;1.60;;;;;;;;;;5034273;28;20143;-52
2022/02/03 20:46:00;;;;;;;1.58;1.40;;;;;;;;;;5031396;28;20056;-50
2022/02/03 20:48:29;;;;;;;1.88;1.25;;;;;;;;;;5040804;28;20400;-51
2022/02/03 20:50:56;;;;;;;2.15;1.30;;;;;;;;;;5040622;28;20534;-49
2022/02/03 20:53:23;;;;;;;2.05;0.90;;;;;;;;;;5031291;28;20835;-51
2022/02/03 20:55:49;;;;;;;2.45;1.42;;;;;;;;;;5036743;28;20037;-49
2022/02/03 20:58:18;;;;;;;1.80;1.10;;;;;;;;;;5032259;28;20028;-50
2022/02/03 21:00:59;;;;;;;2.83;1.77;;;;;;;;;;5032021;28;20032;-51
2022/02/03 21:03:31;;;;;;;2.78;1.52;;;;;;;;;;5030707;28;20392;-49
2022/02/03 21:05:57;;;;;;;1.83;1.30;;;;;;;;;;5036683;28;20108;-52
2022/02/03 21:08:30;;;;;;;2.85;1.58;;;;;;;;;;5033302;28;20076;-51
2022/02/03 21:10:56;;;;;;;2.53;1.50;;;;;;;;;;5031267;28;20024;-50
2022/02/03 21:13:23;;;;;;;2.35;1.20;;;;;;;;;;5036435;28;20381;-50
2022/02/03 21:15:49;;;;;;;1.83;1.23;;;;;;;;;;5040488;28;20037;-52
2022/02/03 21:18:17;;;;;;;1.60;1.20;;;;;;;;;;5024899;28;20377;-52
2022/02/03 21:20:43;;;;;;;2.78;1.58;;;;;;;;;;5032873;28;20174;-53
2022/02/03 21:23:10;;;;;;;3.05;2.08;;;;;;;;;;5057691;28;20033;-50
2022/02/03 21:25:39;;;;;;;2.38;1.65;;;;;;;;;;5026118;28;20538;-52
2022/02/03 21:28:11;;;;;;;4.25;1.65;;;;;;;;;;5042922;28;20028;-50
2022/02/03 21:30:38;;;;;;;2.70;1.58;;;;;;;;;;5046331;28;20476;-52
2022/02/03 21:33:06;;;;;;;3.50;2.05;;;;;;;;;;5045711;28;20060;-52
2022/02/03 21:35:32;;;;;;;4.07;2.58;;;;;;;;;;5045532;28;20494;-51
2022/02/03 21:37:59;;;;;;;4.25;2.55;;;;;;;;;;5029494;28;20025;-52
2022/02/03 21:40:25;;;;;;;6.32;4.00;;;;;;;;;;5025447;28;20031;-50
2022/02/03 21:42:52;;;;;;;7.00;4.00;;;;;;;;;;5025763;28;20438;-53
2022/02/03 21:45:22;;;;;;;6.10;4.03;;;;;;;;;;5025640;28;20036;-52
2022/02/03 21:47:48;;;;;;;8.32;4.65;;;;;;;;;;5025224;28;20032;-50
2022/02/03 21:50:14;;;;;;;9.27;5.25;;;;;;;;;;5025388;28;20052;-52
2022/02/03 21:52:48;;;;;;;9.45;5.72;;;;;;;;;;5026078;28;20070;-53
2022/02/03 21:55:14;;;;;;;9.52;5.45;;;;;;;;;;5024752;28;20595;-50
2022/02/03 21:57:44;;;;;;;8.38;5.35;;;;;;;;;;5033863;28;20033;-53
2022/02/03 22:00:11;;;;;;;6.30;4.53;;;;;;;;;;5045691;28;20032;-54
2022/02/03 22:02:37;;;;;;;9.25;5.20;;;;;;;;;;5044597;28;20492;-52
2022/02/03 22:05:03;;;;;;;10.25;5.55;;;;;;;;;;5044885;28;20104;-51
2022/02/03 22:07:30;;;;;;;8.40;5.40;;;;;;;;;;5042294;28;20068;-49
2022/02/03 22:09:56;;;;;;;8.18;5.07;;;;;;;;;;5045075;28;20522;-52
2022/02/03 22:12:23;;;;;;;8.23;5.05;;;;;;;;;;5044996;28;20025;-51
2022/02/03 22:14:49;;;;;;;8.38;5.82;;;;;;;;;;5044870;28;20048;-51
2022/02/03 22:17:16;;;;;;;8.48;5.90;;;;;;;;;;5047601;28;20028;-50
2022/02/03 22:19:49;;;;;;;11.20;6.13;;;;;;;;;;5025869;28;20037;-49
2022/02/03 22:43:52;;;;;;;9.25;5.70;;;;;;;;;;5024507;28;20416;-48
2022/02/03 22:48:51;;;;;;;14.00;8.20;;;;;;;;;;5024291;28;20117;-51
2022/02/03 22:51:17;;;;;;;14.30;8.32;;;;;;;;;;5024326;28;20406;-52
2022/02/03 22:53:46;;;;;;;10.70;6.72;;;;;;;;;;5023804;28;20047;-50
2022/02/03 22:56:13;;;;;;;12.40;6.97;;;;;;;;;;5029955;28;20071;-51
2022/02/03 23:01:25;;;;;;;8.90;6.07;;;;;;;;;;5023553;28;20120;-52
2022/02/03 23:03:51;;;;;;;9.18;6.05;;;;;;;;;;5023887;28;20025;-50
2022/02/03 23:06:17;;;;;;;8.80;5.43;;;;;;;;;;5036414;28;20036;-52
2022/02/03 23:19:17;;;;;;;9.90;5.53;;;;;;;;;;5023950;28;20122;-51
2022/02/03 23:21:50;;;;;;;9.02;5.38;;;;;;;;;;5024148;28;20049;-52
2022/02/03 23:24:19;;;;;;;7.88;5.05;;;;;;;;;;5024005;28;20140;-50
2022/02/03 23:26:51;;;;;;;7.57;4.97;;;;;;;;;;5023026;28;20025;-52
2022/02/03 23:29:20;;;;;;;6.63;4.35;;;;;;;;;;5024169;28;20029;-51
2022/02/03 23:31:59;;;;;;;6.82;4.05;;;;;;;;;;5024255;28;20084;-52
2022/02/03 23:34:25;;;;;;;5.85;4.15;;;;;;;;;;5041969;28;20040;-52
2022/02/03 23:36:51;;;;;;;5.68;4.18;;;;;;;;;;5025128;28;20035;-50
2022/02/03 23:39:27;;;;;;;5.55;3.65;;;;;;;;;;5023181;28;20100;-52
2022/02/03 23:44:47;;;;;;;5.43;3.75;;;;;;;;;;5023427;28;20174;-51
2022/02/03 23:47:57;;;;;;;6.43;4.03;;;;;;;;;;5023514;28;20511;-51
